Time;durP1;ratioP1;P1;durP2;ratioP2;P2;SDS_P1;SDS_P2;PMS_P1;PMS_P2;Temp;Humidity;BMP_temperature;BMP_pressure;BME280_temperature;BME280_humidity;BME280_pressure;Samples;Min_cycle;Max_cycle;Signal;HPM_P1;HPM_P2
2022/05/06 00:01:27;;;;;;;21.20;9.77;;;;;;;;;;5065168;28;20079;-57
2022/05/06 00:03:54;;;;;;;18.10;10.35;;;;;;;;;;5065661;28;20037;-57
2022/05/06 00:06:20;;;;;;;13.40;8.43;;;;;;;;;;5065362;28;20029;-57
2022/05/06 00:08:46;;;;;;;15.85;8.38;;;;;;;;;;5043896;28;20037;-57
2022/05/06 00:11:13;;;;;;;19.13;9.75;;;;;;;;;;5045847;28;20411;-57
2022/05/06 00:13:39;;;;;;;21.10;9.43;;;;;;;;;;5046254;28;20053;-57
2022/05/06 00:16:05;;;;;;;17.27;9.65;;;;;;;;;;5050162;28;20063;-57
2022/05/06 00:18:31;;;;;;;19.90;9.07;;;;;;;;;;5054229;28;20047;-57
2022/05/06 00:20:58;;;;;;;17.25;9.23;;;;;;;;;;5046610;28;20051;-58
2022/05/06 00:23:24;;;;;;;23.10;10.82;;;;;;;;;;5046458;28;20526;-58
2022/05/06 00:25:50;;;;;;;16.13;8.73;;;;;;;;;;5061543;28;20040;-57
2022/05/06 00:28:16;;;;;;;23.23;10.75;;;;;;;;;;5053042;28;20059;-57
2022/05/06 00:30:43;;;;;;;23.05;11.35;;;;;;;;;;5046826;28;21156;-57
2022/05/06 00:33:09;;;;;;;18.95;10.43;;;;;;;;;;5045719;28;20037;-57
2022/05/06 00:35:37;;;;;;;19.33;9.82;;;;;;;;;;5063801;28;20141;-57
2022/05/06 00:38:03;;;;;;;22.05;9.52;;;;;;;;;;5064743;28;20052;-58
2022/05/06 00:40:29;;;;;;;18.40;9.18;;;;;;;;;;5051690;28;20394;-57
2022/05/06 00:42:56;;;;;;;20.30;9.35;;;;;;;;;;5046050;28;20128;-58
2022/05/06 00:45:23;;;;;;;19.80;10.02;;;;;;;;;;5046529;28;20049;-57
2022/05/06 00:47:49;;;;;;;13.95;8.07;;;;;;;;;;5045616;28;20037;-58
2022/05/06 00:50:16;;;;;;;16.05;8.73;;;;;;;;;;5057582;28;20040;-57
2022/05/06 00:52:42;;;;;;;17.30;8.18;;;;;;;;;;5064768;28;20048;-57
2022/05/06 00:55:09;;;;;;;21.35;8.85;;;;;;;;;;5063555;28;20052;-57
2022/05/06 00:57:36;;;;;;;20.30;10.02;;;;;;;;;;5051683;28;20142;-57
2022/05/06 01:00:18;;;;;;;22.15;10.48;;;;;;;;;;5057221;28;20127;-57
2022/05/06 01:02:44;;;;;;;19.63;10.25;;;;;;;;;;5064003;28;20627;-57
2022/05/06 01:05:12;;;;;;;19.08;10.23;;;;;;;;;;5064240;28;20041;-57
2022/05/06 01:07:39;;;;;;;20.10;10.68;;;;;;;;;;5056279;22;20044;-57
2022/05/06 01:10:06;;;;;;;21.65;11.88;;;;;;;;;;5024492;28;20053;-57
2022/05/06 01:12:33;;;;;;;20.52;10.98;;;;;;;;;;5025283;28;20045;-57
2022/05/06 01:15:00;;;;;;;24.98;12.77;;;;;;;;;;5025252;28;20080;-57
2022/05/06 01:17:26;;;;;;;29.73;13.80;;;;;;;;;;5032293;28;20063;-57
2022/05/06 01:19:52;;;;;;;27.65;12.98;;;;;;;;;;5043722;28;20032;-57
2022/05/06 01:22:18;;;;;;;26.10;12.77;;;;;;;;;;5044240;28;20049;-57
2022/05/06 01:24:44;;;;;;;23.80;11.82;;;;;;;;;;5043494;28;20128;-57
2022/05/06 01:27:23;;;;;;;22.98;11.88;;;;;;;;;;5036081;28;20095;-57
2022/05/06 01:29:52;;;;;;;23.60;10.73;;;;;;;;;;5025877;28;20125;-57
2022/05/06 01:32:18;;;;;;;22.33;9.65;;;;;;;;;;5025570;28;20042;-57
2022/05/06 06:08:26;;;;;;;39.53;15.43;;;;;;;;;;3220125;22;24031;-58
2022/05/06 06:10:53;;;;;;;38.42;14.13;;;;;;;;;;5037875;28;20053;-58
2022/05/06 06:13:19;;;;;;;88.38;15.63;;;;;;;;;;5036770;28;20076;-58
2022/05/06 06:15:45;;;;;;;31.92;13.23;;;;;;;;;;5048181;28;20144;-58
2022/05/06 06:18:12;;;;;;;24.08;12.07;;;;;;;;;;5048045;28;20448;-58
2022/05/06 06:20:38;;;;;;;32.65;12.82;;;;;;;;;;5027533;28;20136;-58
2022/05/06 06:23:04;;;;;;;29.60;12.80;;;;;;;;;;5028093;28;20072;-58
2022/05/06 06:25:30;;;;;;;31.88;12.82;;;;;;;;;;5027376;28;20073;-58
2022/05/06 06:27:56;;;;;;;28.83;13.45;;;;;;;;;;5041653;28;20440;-58
2022/05/06 06:30:23;;;;;;;51.53;14.13;;;;;;;;;;5046964;28;20478;-58
2022/05/06 06:32:51;;;;;;;36.05;13.85;;;;;;;;;;5047386;28;20037;-58
2022/05/06 06:35:18;;;;;;;34.83;15.25;;;;;;;;;;5042016;28;20472;-58
2022/05/06 06:37:45;;;;;;;38.08;15.30;;;;;;;;;;5047308;28;20405;-58
2022/05/06 06:40:11;;;;;;;61.63;16.95;;;;;;;;;;5041881;28;20147;-57
2022/05/06 06:42:38;;;;;;;39.25;14.80;;;;;;;;;;5045925;28;20059;-58
2022/05/06 06:45:04;;;;;;;38.25;16.42;;;;;;;;;;5046683;28;20045;-58
2022/05/06 06:47:30;;;;;;;50.10;16.88;;;;;;;;;;5046145;28;20131;-58
2022/05/06 06:49:58;;;;;;;39.22;18.52;;;;;;;;;;5046816;28;20536;-58
2022/05/06 06:52:24;;;;;;;38.33;18.52;;;;;;;;;;5047304;28;20422;-57
2022/05/06 06:54:50;;;;;;;47.63;18.38;;;;;;;;;;5045481;28;20051;-57
2022/05/06 06:57:16;;;;;;;44.20;19.98;;;;;;;;;;5045926;28;20127;-58
2022/05/06 06:59:43;;;;;;;44.53;19.80;;;;;;;;;;5045652;28;20413;-58
2022/05/06 07:02:09;;;;;;;50.22;20.80;;;;;;;;;;5046635;28;20044;-58
2022/05/06 07:04:35;;;;;;;48.20;21.33;;;;;;;;;;5043401;28;20095;-58
2022/05/06 07:12:31;;;;;;;45.90;21.75;;;;;;;;;;5043962;28;20049;-58
2022/05/06 07:14:57;;;;;;;44.33;20.63;;;;;;;;;;5045217;28;20041;-57
2022/05/06 07:17:23;;;;;;;44.38;20.65;;;;;;;;;;5046286;28;20846;-58
2022/05/06 07:19:49;;;;;;;42.70;20.52;;;;;;;;;;5046744;28;20099;-58
2022/05/06 07:22:15;;;;;;;44.60;20.48;;;;;;;;;;5045824;28;20049;-58
2022/05/06 07:24:41;;;;;;;43.75;20.80;;;;;;;;;;5046165;28;20040;-58
2022/05/06 07:27:08;;;;;;;36.85;18.55;;;;;;;;;;5046554;28;20056;-58
2022/05/06 07:29:34;;;;;;;41.55;19.38;;;;;;;;;;5046041;28;20049;-58
2022/05/06 07:32:01;;;;;;;36.50;17.80;;;;;;;;;;5041733;28;20060;-58
2022/05/06 07:34:27;;;;;;;36.03;17.25;;;;;;;;;;5045830;28;20076;-58
2022/05/06 07:36:53;;;;;;;33.90;17.20;;;;;;;;;;5046334;28;20048;-58
2022/05/06 07:39:19;;;;;;;37.92;17.13;;;;;;;;;;5045003;28;21589;-57
2022/05/06 07:41:46;;;;;;;39.88;17.48;;;;;;;;;;5045295;28;20477;-58
2022/05/06 07:44:12;;;;;;;31.92;15.75;;;;;;;;;;5044666;28;20041;-57
2022/05/06 07:46:38;;;;;;;30.10;15.43;;;;;;;;;;5045704;28;20068;-58
2022/05/06 07:49:05;;;;;;;28.13;15.57;;;;;;;;;;5045343;28;20048;-57
2022/05/06 07:51:31;;;;;;;30.45;15.43;;;;;;;;;;5045064;28;20502;-58
2022/05/06 07:53:58;;;;;;;31.17;15.70;;;;;;;;;;5044936;28;20045;-58
2022/05/06 07:56:24;;;;;;;31.88;15.75;;;;;;;;;;5044842;28;20543;-57
2022/05/06 07:58:51;;;;;;;29.25;15.43;;;;;;;;;;5045386;28;20054;-58
2022/05/06 08:01:17;;;;;;;32.60;14.98;;;;;;;;;;5045126;28;20040;-60
2022/05/06 08:06:30;;;;;;;31.13;15.20;;;;;;;;;;5045473;28;20516;-57
2022/05/06 08:08:56;;;;;;;31.80;16.45;;;;;;;;;;5044452;28;20135;-57
2022/05/06 08:11:22;;;;;;;31.33;14.88;;;;;;;;;;5047667;28;20106;-58
2022/05/06 08:13:49;;;;;;;27.70;13.48;;;;;;;;;;5044828;28;20441;-58
2022/05/06 08:16:15;;;;;;;30.75;13.82;;;;;;;;;;5044522;28;20402;-58
2022/05/06 08:18:42;;;;;;;26.85;13.52;;;;;;;;;;5045467;28;20045;-57
2022/05/06 08:21:08;;;;;;;25.02;13.00;;;;;;;;;;5044950;28;20444;-58
2022/05/06 08:23:34;;;;;;;24.48;12.90;;;;;;;;;;5044141;28;20265;-58
2022/05/06 08:26:00;;;;;;;24.40;13.23;;;;;;;;;;5045201;28;20576;-58
2022/05/06 08:28:27;;;;;;;23.10;12.48;;;;;;;;;;5044435;28;20102;-58
2022/05/06 08:30:53;;;;;;;21.33;10.95;;;;;;;;;;5044266;28;20091;-58
2022/05/06 08:33:21;;;;;;;20.30;10.80;;;;;;;;;;5044039;28;20087;-58
2022/05/06 08:35:48;;;;;;;21.38;9.60;;;;;;;;;;5044720;28;20048;-58
2022/05/06 08:38:15;;;;;;;19.35;10.35;;;;;;;;;;5044081;28;20063;-58
2022/05/06 08:40:41;;;;;;;15.90;9.57;;;;;;;;;;5045312;28;20049;-57
2022/05/06 08:43:08;;;;;;;15.85;9.40;;;;;;;;;;5044691;28;20041;-57
2022/05/06 08:51:05;;;;;;;15.23;8.45;;;;;;;;;;5041731;28;20045;-57
2022/05/06 08:53:34;;;;;;;11.68;7.30;;;;;;;;;;5043142;28;20033;-58
2022/05/06 08:56:02;;;;;;;13.75;7.78;;;;;;;;;;5043397;28;20063;-58
2022/05/06 08:58:29;;;;;;;;;;;;;;;;;;5044014;28;20119;-58
2022/05/06 09:01:04;;;;;;;13.48;7.80;;;;;;;;;;5043645;28;19951;-58
2022/05/06 09:03:30;;;;;;;14.95;7.22;;;;;;;;;;5041364;28;20049;-59
2022/05/06 09:06:00;;;;;;;12.85;7.30;;;;;;;;;;5043911;28;20541;-58
2022/05/06 09:08:37;;;;;;;12.77;7.45;;;;;;;;;;5042212;28;20068;-58
2022/05/06 09:11:07;;;;;;;12.32;7.05;;;;;;;;;;5043658;28;20049;-58
2022/05/06 09:13:34;;;;;;;12.35;6.97;;;;;;;;;;5043184;28;20890;-58
2022/05/06 09:19:11;;;;;;;14.02;7.65;;;;;;;;;;5043335;28;20059;-58
2022/05/06 09:21:38;;;;;;;10.82;7.18;;;;;;;;;;5043164;28;20041;-58
2022/05/06 09:24:19;;;;;;;10.90;7.00;;;;;;;;;;5043158;28;20762;-58
2022/05/06 09:26:55;;;;;;;11.15;6.72;;;;;;;;;;5043600;28;20045;-58
2022/05/06 09:29:28;;;;;;;11.45;6.65;;;;;;;;;;5043175;28;20059;-58
2022/05/06 09:31:56;;;;;;;12.45;7.00;;;;;;;;;;5043075;28;20045;-58
2022/05/06 09:34:28;;;;;;;10.02;6.57;;;;;;;;;;5043227;28;20148;-58
2022/05/06 09:36:55;;;;;;;11.63;7.07;;;;;;;;;;5043495;28;20058;-59
2022/05/06 09:39:22;;;;;;;10.37;6.40;;;;;;;;;;5041712;28;20048;-58
2022/05/06 09:41:48;;;;;;;12.70;6.65;;;;;;;;;;5042745;28;20048;-58
2022/05/06 09:44:15;;;;;;;10.85;7.10;;;;;;;;;;5042604;28;20490;-59
2022/05/06 09:46:41;;;;;;;11.40;7.43;;;;;;;;;;5043347;28;20584;-58
2022/05/06 09:49:08;;;;;;;12.98;7.22;;;;;;;;;;5042985;28;20513;-58
2022/05/06 09:51:34;;;;;;;12.07;7.97;;;;;;;;;;5043123;28;20141;-58
2022/05/06 09:54:01;;;;;;;13.25;7.75;;;;;;;;;;5042904;28;20083;-58
2022/05/06 09:56:28;;;;;;;13.43;7.68;;;;;;;;;;5043254;28;20094;-58
2022/05/06 09:58:55;;;;;;;11.20;7.18;;;;;;;;;;5043483;28;20045;-58
2022/05/06 10:01:21;;;;;;;11.40;7.72;;;;;;;;;;5042988;28;20056;-58
2022/05/06 10:03:48;;;;;;;12.88;7.47;;;;;;;;;;5042543;28;20068;-58
2022/05/06 10:06:14;;;;;;;10.63;7.53;;;;;;;;;;5042788;28;20057;-61
2022/05/06 10:08:45;;;;;;;11.32;7.32;;;;;;;;;;5042337;28;20067;-58
2022/05/06 10:11:14;;;;;;;15.23;6.72;;;;;;;;;;5043208;28;20095;-58
2022/05/06 10:13:44;;;;;;;9.25;6.43;;;;;;;;;;5042724;28;20552;-58
2022/05/06 10:16:11;;;;;;;11.82;6.47;;;;;;;;;;5041429;28;20758;-58
2022/05/06 10:18:38;;;;;;;9.63;5.72;;;;;;;;;;5045060;28;20040;-58
2022/05/06 10:21:04;;;;;;;8.20;5.28;;;;;;;;;;5041273;28;20522;-58
2022/05/06 10:23:42;;;;;;;8.52;5.45;;;;;;;;;;5041847;28;20126;-58
2022/05/06 10:26:09;;;;;;;8.00;5.40;;;;;;;;;;5042852;28;20055;-58
2022/05/06 10:34:23;;;;;;;8.95;4.82;;;;;;;;;;5042401;28;20526;-58
2022/05/06 10:36:53;;;;;;;8.90;5.03;;;;;;;;;;5042581;28;20045;-59
2022/05/06 10:39:20;;;;;;;7.30;4.65;;;;;;;;;;5041542;28;20512;-58
2022/05/06 10:42:05;;;;;;;8.63;4.28;;;;;;;;;;5042606;28;20036;-58
2022/05/06 10:44:34;;;;;;;5.63;4.13;;;;;;;;;;5041994;28;20048;-59
2022/05/06 10:47:01;;;;;;;7.80;4.70;;;;;;;;;;5042875;28;20526;-58
2022/05/06 10:49:36;;;;;;;10.93;5.97;;;;;;;;;;5040767;28;20041;-58
2022/05/06 10:52:14;;;;;;;7.47;5.35;;;;;;;;;;5043947;28;20048;-58
2022/05/06 10:54:41;;;;;;;7.55;5.50;;;;;;;;;;5043432;28;20052;-59
2022/05/06 10:57:07;;;;;;;7.85;4.95;;;;;;;;;;5045714;28;20037;-58
2022/05/06 10:59:48;;;;;;;6.13;4.30;;;;;;;;;;5041674;28;20033;-58
2022/05/06 11:02:16;;;;;;;8.52;4.43;;;;;;;;;;5043774;28;20098;-59
2022/05/06 11:04:42;;;;;;;7.38;4.57;;;;;;;;;;5046724;28;20102;-58
2022/05/06 11:07:12;;;;;;;7.47;4.28;;;;;;;;;;5046643;28;20056;-59
2022/05/06 11:09:38;;;;;;;7.72;4.55;;;;;;;;;;5043675;28;20113;-59
2022/05/06 11:12:06;;;;;;;7.00;4.43;;;;;;;;;;5045892;28;20053;-59
2022/05/06 11:14:33;;;;;;;7.32;4.60;;;;;;;;;;5045681;28;20091;-59
2022/05/06 11:17:18;;;;;;;6.47;4.63;;;;;;;;;;5043833;28;20111;-58
2022/05/06 11:19:45;;;;;;;6.35;4.43;;;;;;;;;;5042800;28;20132;-59
2022/05/06 11:22:11;;;;;;;5.78;3.97;;;;;;;;;;5045815;28;20045;-58
2022/05/06 11:24:37;;;;;;;6.55;4.20;;;;;;;;;;5043404;28;20045;-58
2022/05/06 11:27:17;;;;;;;8.48;4.15;;;;;;;;;;5045269;28;20757;-58
2022/05/06 11:29:49;;;;;;;5.45;3.42;;;;;;;;;;5045788;28;20071;-58
2022/05/06 11:32:15;;;;;;;8.85;3.30;;;;;;;;;;5044096;28;20099;-58
2022/05/06 11:34:48;;;;;;;4.85;2.90;;;;;;;;;;5045082;28;20041;-58
2022/05/06 11:37:21;;;;;;;8.13;3.00;;;;;;;;;;5045948;28;20080;-60
2022/05/06 11:39:47;;;;;;;6.90;3.22;;;;;;;;;;5046170;28;20037;-59
2022/05/06 11:42:20;;;;;;;9.40;3.47;;;;;;;;;;5046111;28;20053;-59
2022/05/06 11:47:46;;;;;;;9.57;3.13;;;;;;;;;;5050092;28;20041;-59
2022/05/06 11:50:12;;;;;;;6.07;2.80;;;;;;;;;;5048855;28;20508;-59
2022/05/06 11:52:39;;;;;;;4.30;2.67;;;;;;;;;;5047387;28;20045;-59
2022/05/06 11:55:06;;;;;;;4.32;2.28;;;;;;;;;;5061740;28;20055;-59
2022/05/06 11:57:34;;;;;;;4.00;2.22;;;;;;;;;;5066487;28;20037;-59
2022/05/06 12:00:00;;;;;;;5.47;2.55;;;;;;;;;;5066303;28;20072;-59
2022/05/06 12:02:26;;;;;;;5.45;2.47;;;;;;;;;;5047319;28;20048;-59
2022/05/06 12:04:52;;;;;;;3.30;2.35;;;;;;;;;;5048163;28;20044;-59
2022/05/06 12:07:18;;;;;;;4.88;2.08;;;;;;;;;;5051523;28;20452;-59
2022/05/06 12:09:45;;;;;;;3.75;2.22;;;;;;;;;;5066182;28;20044;-59
2022/05/06 12:12:11;;;;;;;7.43;1.35;;;;;;;;;;5067294;28;20040;-58
2022/05/06 12:14:38;;;;;;;7.30;1.05;;;;;;;;;;5056486;28;20090;-63
2022/05/06 12:17:06;;;;;;;6.80;1.25;;;;;;;;;;5047443;28;20049;-59
2022/05/06 12:19:33;;;;;;;3.57;0.90;;;;;;;;;;5047638;28;20569;-59
2022/05/06 12:22:06;;;;;;;2.15;0.65;;;;;;;;;;5062838;28;20090;-59
2022/05/06 12:24:39;;;;;;;4.32;1.00;;;;;;;;;;5065436;28;20040;-59
2022/05/06 12:27:07;;;;;;;2.25;0.93;;;;;;;;;;5063692;28;20067;-59
2022/05/06 12:29:37;;;;;;;4.43;1.35;;;;;;;;;;5047222;28;20355;-59
2022/05/06 12:32:04;;;;;;;4.10;1.52;;;;;;;;;;5047472;28;20110;-58
2022/05/06 12:34:31;;;;;;;6.38;1.75;;;;;;;;;;5055929;28;20068;-60
2022/05/06 12:37:09;;;;;;;8.05;1.65;;;;;;;;;;5050745;28;20051;-58
2022/05/06 12:39:40;;;;;;;3.78;1.95;;;;;;;;;;5046647;28;20045;-58
2022/05/06 12:42:13;;;;;;;30.73;3.33;;;;;;;;;;5062772;28;20052;-59
2022/05/06 12:44:39;;;;;;;5.28;1.67;;;;;;;;;;5066349;28;20064;-58
2022/05/06 12:47:13;;;;;;;6.85;1.83;;;;;;;;;;5063400;28;20032;-58
2022/05/06 12:49:40;;;;;;;3.90;2.00;;;;;;;;;;5044591;28;20045;-59
2022/05/06 12:52:08;;;;;;;5.22;1.67;;;;;;;;;;5047393;28;20041;-58
2022/05/06 12:54:35;;;;;;;3.97;1.75;;;;;;;;;;5055502;28;20106;-59
2022/05/06 12:57:01;;;;;;;4.18;2.55;;;;;;;;;;5065578;28;20127;-59
2022/05/06 12:59:27;;;;;;;6.45;2.72;;;;;;;;;;5065641;28;20115;-58
2022/05/06 13:01:54;;;;;;;4.32;2.03;;;;;;;;;;5064444;28;20093;-59
2022/05/06 13:04:21;;;;;;;8.70;1.80;;;;;;;;;;5065435;28;20044;-59
2022/05/06 13:06:47;;;;;;;6.68;1.50;;;;;;;;;;5064969;28;20032;-59
2022/05/06 13:09:14;;;;;;;3.92;1.52;;;;;;;;;;5045815;28;20075;-59
2022/05/06 13:11:40;;;;;;;4.03;1.85;;;;;;;;;;5066280;28;20040;-60
2022/05/06 13:14:07;;;;;;;5.70;1.30;;;;;;;;;;5051303;28;20083;-60
2022/05/06 13:16:35;;;;;;;6.45;1.60;;;;;;;;;;5065049;28;20058;-60
2022/05/06 13:19:02;;;;;;;12.25;1.70;;;;;;;;;;5065329;28;20053;-60
2022/05/06 13:21:28;;;;;;;5.93;2.08;;;;;;;;;;5054024;28;20098;-60
2022/05/06 13:23:55;;;;;;;8.38;2.45;;;;;;;;;;5043969;28;20047;-60
2022/05/06 13:26:21;;;;;;;3.30;1.77;;;;;;;;;;5046834;28;20044;-60
2022/05/06 13:28:47;;;;;;;4.40;1.60;;;;;;;;;;5042893;28;20083;-60
2022/05/06 13:31:13;;;;;;;4.22;1.50;;;;;;;;;;5046411;28;20094;-60
2022/05/06 13:33:40;;;;;;;12.88;1.70;;;;;;;;;;5046200;28;20506;-60
2022/05/06 13:36:06;;;;;;;3.13;1.58;;;;;;;;;;5046664;28;20053;-60
2022/05/06 13:38:32;;;;;;;5.15;2.17;;;;;;;;;;5045177;28;20037;-60
2022/05/06 13:40:58;;;;;;;6.25;2.40;;;;;;;;;;5048752;28;20069;-60
2022/05/06 13:43:24;;;;;;;4.50;2.58;;;;;;;;;;5048337;28;20037;-61
2022/05/06 13:45:50;;;;;;;6.80;2.47;;;;;;;;;;5048162;28;20080;-61
2022/05/06 13:48:16;;;;;;;4.55;2.25;;;;;;;;;;5057991;28;20055;-61
2022/05/06 13:50:42;;;;;;;17.05;2.88;;;;;;;;;;5055875;28;20037;-60
2022/05/06 13:53:09;;;;;;;12.50;2.92;;;;;;;;;;5045646;28;20037;-60
2022/05/06 14:01:05;;;;;;;8.25;2.20;;;;;;;;;;5043812;28;20494;-60
2022/05/06 14:03:32;;;;;;;7.95;1.63;;;;;;;;;;5043389;28;20041;-60
2022/05/06 14:05:58;;;;;;;5.32;1.25;;;;;;;;;;5046192;28;20049;-60
2022/05/06 14:08:24;;;;;;;7.85;2.25;;;;;;;;;;5046165;28;20097;-61
2022/05/06 14:10:50;;;;;;;4.72;1.40;;;;;;;;;;5049325;28;20084;-60
2022/05/06 14:13:16;;;;;;;5.82;1.90;;;;;;;;;;5064497;28;20053;-59
2022/05/06 14:15:43;;;;;;;6.53;2.08;;;;;;;;;;5047292;28;20398;-59
2022/05/06 14:18:09;;;;;;;7.55;2.35;;;;;;;;;;5046206;28;20041;-58
2022/05/06 14:20:35;;;;;;;5.15;2.30;;;;;;;;;;5048318;28;20041;-58
2022/05/06 14:23:01;;;;;;;4.80;2.20;;;;;;;;;;5064085;28;20048;-60
2022/05/06 14:25:28;;;;;;;4.72;2.10;;;;;;;;;;5066752;28;20029;-60
2022/05/06 14:27:54;;;;;;;4.45;2.13;;;;;;;;;;5059985;28;20049;-60
2022/05/06 14:30:20;;;;;;;6.07;2.35;;;;;;;;;;5047653;28;20044;-59
2022/05/06 14:32:47;;;;;;;5.38;2.25;;;;;;;;;;5049896;28;20179;-60
2022/05/06 14:35:20;;;;;;;7.82;2.58;;;;;;;;;;5053353;28;20067;-60
2022/05/06 14:37:49;;;;;;;8.82;3.10;;;;;;;;;;5048595;28;20048;-60
2022/05/06 14:40:17;;;;;;;7.47;2.60;;;;;;;;;;5049005;28;20037;-60
2022/05/06 14:42:43;;;;;;;7.88;2.97;;;;;;;;;;5068656;28;20045;-60
2022/05/06 14:45:10;;;;;;;5.00;3.10;;;;;;;;;;5068690;28;20028;-60
2022/05/06 14:47:36;;;;;;;8.45;3.03;;;;;;;;;;5054373;28;20060;-60
2022/05/06 14:50:03;;;;;;;16.42;3.20;;;;;;;;;;5049549;28;20110;-59
2022/05/06 14:52:29;;;;;;;6.93;3.03;;;;;;;;;;5048409;28;20044;-60
2022/05/06 14:54:56;;;;;;;6.05;3.33;;;;;;;;;;5066429;28;20090;-60
2022/05/06 14:57:23;;;;;;;6.88;2.95;;;;;;;;;;5067426;28;20040;-60
2022/05/06 14:59:49;;;;;;;8.48;3.67;;;;;;;;;;5052468;28;20064;-60
2022/05/06 15:02:15;;;;;;;15.48;4.10;;;;;;;;;;5066571;28;20079;-59
2022/05/06 15:04:42;;;;;;;17.05;4.57;;;;;;;;;;5068174;28;20050;-60
2022/05/06 15:07:08;;;;;;;8.68;3.53;;;;;;;;;;5058337;28;20095;-60
2022/05/06 15:09:34;;;;;;;10.65;4.40;;;;;;;;;;5048398;28;20119;-59
2022/05/06 15:12:00;;;;;;;10.23;4.93;;;;;;;;;;5066478;28;20052;-60
2022/05/06 15:14:31;;;;;;;9.60;5.47;;;;;;;;;;5054259;28;20044;-60
2022/05/06 15:17:04;;;;;;;9.65;5.30;;;;;;;;;;5049991;28;20529;-60
2022/05/06 15:19:31;;;;;;;9.73;4.85;;;;;;;;;;5049564;28;20044;-60
2022/05/06 15:22:01;;;;;;;10.00;4.38;;;;;;;;;;5047754;28;20041;-60
2022/05/06 15:24:27;;;;;;;8.95;4.82;;;;;;;;;;5048483;28;20055;-60
2022/05/06 15:26:53;;;;;;;8.88;4.68;;;;;;;;;;5054685;28;20048;-60
2022/05/06 15:29:19;;;;;;;9.90;4.28;;;;;;;;;;5067253;28;20048;-60
2022/05/06 15:31:45;;;;;;;8.05;3.95;;;;;;;;;;5067340;28;20094;-60
2022/05/06 15:34:11;;;;;;;7.10;3.38;;;;;;;;;;5063852;28;20048;-60
2022/05/06 15:36:38;;;;;;;5.20;3.45;;;;;;;;;;5066038;28;20052;-60
2022/05/06 15:39:04;;;;;;;5.82;4.03;;;;;;;;;;5066161;28;20564;-60
2022/05/06 15:41:30;;;;;;;9.70;4.15;;;;;;;;;;5051113;28;20076;-60
2022/05/06 15:43:56;;;;;;;8.50;4.22;;;;;;;;;;5047792;28;20044;-60
2022/05/06 15:46:22;;;;;;;12.55;4.05;;;;;;;;;;5049525;28;20533;-61
2022/05/06 15:48:48;;;;;;;6.10;4.38;;;;;;;;;;5066321;28;20042;-61
2022/05/06 15:51:18;;;;;;;11.63;5.25;;;;;;;;;;5066647;28;20490;-61
2022/05/06 15:53:44;;;;;;;11.85;3.28;;;;;;;;;;5058720;28;20051;-61
2022/05/06 15:56:10;;;;;;;13.45;4.72;;;;;;;;;;5048578;28;20053;-61
2022/05/06 15:58:37;;;;;;;7.63;3.85;;;;;;;;;;5049160;28;20044;-60
2022/05/06 16:01:03;;;;;;;8.68;4.40;;;;;;;;;;5054447;28;20045;-60
2022/05/06 16:03:29;;;;;;;6.35;4.72;;;;;;;;;;5050888;28;20041;-60
2022/05/06 16:05:55;;;;;;;9.27;4.88;;;;;;;;;;5064898;28;20055;-60
2022/05/06 16:08:22;;;;;;;13.25;5.38;;;;;;;;;;5048089;28;20057;-60
2022/05/06 16:10:48;;;;;;;21.02;4.72;;;;;;;;;;5047803;28;20695;-61
2022/05/06 16:13:15;;;;;;;11.27;4.18;;;;;;;;;;5047823;28;20047;-62
2022/05/06 16:15:41;;;;;;;12.73;5.05;;;;;;;;;;5047675;28;20098;-60
2022/05/06 16:18:08;;;;;;;14.00;5.82;;;;;;;;;;5047148;28;20080;-60
2022/05/06 16:20:34;;;;;;;15.77;4.90;;;;;;;;;;5055207;28;20686;-60
2022/05/06 16:23:01;;;;;;;9.07;4.45;;;;;;;;;;5065942;28;20060;-60
2022/05/06 16:25:28;;;;;;;9.85;5.22;;;;;;;;;;5064691;28;20119;-60
2022/05/06 16:27:58;;;;;;;12.10;6.15;;;;;;;;;;5053190;28;20037;-60
2022/05/06 16:30:24;;;;;;;17.02;5.70;;;;;;;;;;5047280;28;20037;-60
2022/05/06 16:32:50;;;;;;;7.68;5.32;;;;;;;;;;5047244;28;20044;-60
2022/05/06 16:38:02;;;;;;;9.88;4.93;;;;;;;;;;5049106;28;20392;-59
2022/05/06 16:40:29;;;;;;;8.85;5.25;;;;;;;;;;5053896;28;20075;-60
2022/05/06 16:43:00;;;;;;;12.52;6.05;;;;;;;;;;5055834;28;20044;-59
2022/05/06 16:45:26;;;;;;;13.43;6.63;;;;;;;;;;5048103;28;20108;-59
2022/05/06 16:47:53;;;;;;;11.50;6.90;;;;;;;;;;5059117;28;20052;-60
2022/05/06 16:50:19;;;;;;;10.60;6.50;;;;;;;;;;5065867;28;20032;-59
2022/05/06 16:52:45;;;;;;;11.95;7.20;;;;;;;;;;5065420;28;20045;-59
2022/05/06 16:55:12;;;;;;;10.98;6.35;;;;;;;;;;5048546;28;20037;-59
2022/05/06 16:57:38;;;;;;;10.82;6.05;;;;;;;;;;5044941;28;20045;-59
2022/05/06 17:00:06;;;;;;;8.48;6.15;;;;;;;;;;5044377;28;20063;-60
2022/05/06 17:02:32;;;;;;;10.70;7.00;;;;;;;;;;5045689;28;20102;-59
2022/05/06 17:04:58;;;;;;;11.52;5.82;;;;;;;;;;5045231;28;20564;-59
2022/05/06 17:07:26;;;;;;;9.25;5.20;;;;;;;;;;5042537;28;20080;-59
2022/05/06 17:09:52;;;;;;;9.07;6.47;;;;;;;;;;5041928;28;20892;-60
2022/05/06 17:12:19;;;;;;;10.75;5.82;;;;;;;;;;5041933;28;20045;-60
2022/05/06 17:14:45;;;;;;;9.95;6.47;;;;;;;;;;5043694;28;20049;-59
2022/05/06 17:17:11;;;;;;;13.65;5.90;;;;;;;;;;5043609;28;20045;-59
2022/05/06 17:19:38;;;;;;;11.13;6.67;;;;;;;;;;5043717;28;20140;-59
2022/05/06 17:22:04;;;;;;;10.80;6.10;;;;;;;;;;5042849;28;20362;-59
2022/05/06 17:24:31;;;;;;;12.68;6.70;;;;;;;;;;5043540;28;20778;-59
2022/05/06 17:26:58;;;;;;;12.38;6.00;;;;;;;;;;5044212;28;20049;-59
2022/05/06 17:29:24;;;;;;;9.93;5.38;;;;;;;;;;5043381;28;20044;-58
2022/05/06 17:31:51;;;;;;;7.85;5.13;;;;;;;;;;5043502;28;20045;-58
2022/05/06 17:34:18;;;;;;;11.65;5.65;;;;;;;;;;5043274;28;20080;-58
2022/05/06 17:36:44;;;;;;;9.23;5.32;;;;;;;;;;5042579;28;20099;-62
2022/05/06 17:39:10;;;;;;;11.40;5.28;;;;;;;;;;5044193;28;20041;-58
2022/05/06 17:41:38;;;;;;;10.88;4.90;;;;;;;;;;5043199;28;20037;-58
2022/05/06 17:44:05;;;;;;;10.30;5.10;;;;;;;;;;5043068;28;20140;-58
2022/05/06 17:46:32;;;;;;;15.00;5.88;;;;;;;;;;5043145;28;20124;-59
2022/05/06 17:48:59;;;;;;;7.28;5.30;;;;;;;;;;5044029;28;20191;-59
2022/05/06 17:51:25;;;;;;;22.40;4.70;;;;;;;;;;5043266;28;20048;-59
2022/05/06 17:53:52;;;;;;;17.23;4.70;;;;;;;;;;5043090;28;20049;-59
2022/05/06 17:56:18;;;;;;;22.23;5.07;;;;;;;;;;5043244;28;20049;-60
2022/05/06 17:58:44;;;;;;;9.85;4.47;;;;;;;;;;5043096;28;20041;-61
2022/05/06 18:01:15;;;;;;;8.65;4.60;;;;;;;;;;5047458;28;20145;-59
2022/05/06 18:03:41;;;;;;;7.78;4.30;;;;;;;;;;5048083;28;20045;-59
2022/05/06 18:06:07;;;;;;;10.98;4.15;;;;;;;;;;5047827;28;20047;-59
2022/05/06 18:08:33;;;;;;;6.63;3.78;;;;;;;;;;5045792;28;20056;-59
2022/05/06 18:11:00;;;;;;;6.85;3.83;;;;;;;;;;5047441;28;20053;-59
2022/05/06 18:13:26;;;;;;;6.15;3.88;;;;;;;;;;5047567;28;20044;-59
2022/05/06 18:15:52;;;;;;;10.73;4.20;;;;;;;;;;5047520;28;20159;-58
2022/05/06 18:18:18;;;;;;;6.53;4.03;;;;;;;;;;5047180;28;20044;-59
2022/05/06 18:20:44;;;;;;;52.38;6.50;;;;;;;;;;5047583;28;20060;-59
2022/05/06 18:23:10;;;;;;;11.32;4.38;;;;;;;;;;5046388;28;20611;-58
2022/05/06 18:25:36;;;;;;;17.08;4.18;;;;;;;;;;5046609;28;20047;-59
2022/05/06 18:28:03;;;;;;;9.50;4.63;;;;;;;;;;5046938;28;20052;-58
2022/05/06 18:30:30;;;;;;;7.18;4.68;;;;;;;;;;5047371;28;20044;-58
2022/05/06 18:35:41;;;;;;;9.65;5.13;;;;;;;;;;5046331;28;20053;-59
2022/05/06 18:38:07;;;;;;;8.93;5.20;;;;;;;;;;5044000;28;20045;-59
2022/05/06 18:40:34;;;;;;;10.75;5.05;;;;;;;;;;5038400;28;20041;-59
2022/05/06 18:43:01;;;;;;;9.93;5.38;;;;;;;;;;5031175;28;20060;-59
2022/05/06 18:45:27;;;;;;;13.82;5.43;;;;;;;;;;5031019;28;20049;-59
2022/05/06 18:47:53;;;;;;;18.85;5.82;;;;;;;;;;5031098;28;20049;-59
2022/05/06 18:50:19;;;;;;;16.38;5.57;;;;;;;;;;5036616;28;20048;-59
2022/05/06 18:52:45;;;;;;;15.70;5.55;;;;;;;;;;5045936;28;20552;-59
2022/05/06 18:55:11;;;;;;;14.35;5.45;;;;;;;;;;5046814;28;20057;-58
2022/05/06 18:57:38;;;;;;;11.65;5.22;;;;;;;;;;5046446;28;20051;-59
2022/05/06 19:00:05;;;;;;;10.00;5.85;;;;;;;;;;5047105;28;20351;-58
2022/05/06 19:02:32;;;;;;;13.30;5.57;;;;;;;;;;5046047;28;20099;-59
2022/05/06 19:04:59;;;;;;;13.50;6.03;;;;;;;;;;5046208;28;20048;-59
2022/05/06 19:07:25;;;;;;;11.50;6.15;;;;;;;;;;5045295;28;20121;-59
2022/05/06 19:09:52;;;;;;;13.55;6.82;;;;;;;;;;5048015;28;20064;-58
2022/05/06 19:12:19;;;;;;;10.18;7.88;;;;;;;;;;5041190;28;20120;-58
2022/05/06 19:14:45;;;;;;;16.48;8.43;;;;;;;;;;5044099;28;20051;-59
2022/05/06 19:17:11;;;;;;;14.30;8.35;;;;;;;;;;5032678;28;20350;-58
2022/05/06 19:19:38;;;;;;;14.13;8.25;;;;;;;;;;5028373;28;20475;-58
2022/05/06 19:24:53;;;;;;;15.45;8.10;;;;;;;;;;5033248;28;20053;-59
2022/05/06 19:27:21;;;;;;;14.02;8.32;;;;;;;;;;5032287;28;20050;-59
2022/05/06 19:29:48;;;;;;;17.35;9.48;;;;;;;;;;5032803;28;20112;-59
2022/05/06 19:32:15;;;;;;;13.15;9.32;;;;;;;;;;5030203;28;20044;-59
2022/05/06 19:34:42;;;;;;;17.27;8.93;;;;;;;;;;5033555;28;20037;-58
2022/05/06 19:37:08;;;;;;;17.50;9.60;;;;;;;;;;5034276;28;20175;-59
2022/05/06 19:39:34;;;;;;;15.68;9.85;;;;;;;;;;5044687;28;20075;-59
2022/05/06 19:42:00;;;;;;;17.13;10.02;;;;;;;;;;5045309;28;20045;-58
2022/05/06 19:44:27;;;;;;;15.43;9.30;;;;;;;;;;5045252;28;20080;-58
2022/05/06 19:46:53;;;;;;;15.00;9.60;;;;;;;;;;5044555;28;20379;-59